Time;durP1;ratioP1;P1;durP2;ratioP2;P2;SDS_P1;SDS_P2;PMS_P1;PMS_P2;Temp;Humidity;BMP_temperature;BMP_pressure;BME280_temperature;BME280_humidity;BME280_pressure;Samples;Min_cycle;Max_cycle;Signal;HPM_P1;HPM_P2
2023/10/05 00:01:03;;;;;;;8.25;2.30;;;13.70;99.90;;;;;;5093607;28;20482;-46
2023/10/05 00:03:32;;;;;;;9.13;2.08;;;13.70;99.90;;;;;;5093601;28;20086;-45
2023/10/05 00:06:13;;;;;;;;;;;13.70;99.90;;;;;;5094070;28;20032;-46
2023/10/05 00:08:44;;;;;;;11.25;2.65;;;13.70;99.90;;;;;;5093556;28;19919;-47
2023/10/05 00:11:21;;;;;;;8.70;2.53;;;13.70;99.90;;;;;;5093646;28;20456;-47
2023/10/05 00:13:51;;;;;;;9.60;2.47;;;13.80;99.90;;;;;;5093449;28;20447;-47
2023/10/05 00:16:21;;;;;;;10.68;2.30;;;13.80;99.90;;;;;;5093491;28;20028;-46
2023/10/05 00:18:50;;;;;;;7.72;2.55;;;13.80;99.90;;;;;;5093346;28;20046;-50
2023/10/05 00:21:20;;;;;;;12.65;2.70;;;13.80;99.90;;;;;;5093286;28;20112;-46
2023/10/05 00:23:52;;;;;;;11.70;2.50;;;13.90;99.90;;;;;;5093431;28;20463;-46
2023/10/05 00:26:21;;;;;;;12.18;3.10;;;13.90;99.90;;;;;;5092888;28;20040;-45
2023/10/05 00:29:01;;;;;;;9.07;2.78;;;13.80;99.90;;;;;;5093519;28;20473;-46
2023/10/05 00:31:27;;;;;;;8.73;2.78;;;13.90;99.90;;;;;;5092970;28;20389;-48
2023/10/05 00:33:56;;;;;;;9.07;2.83;;;13.90;99.90;;;;;;5093111;28;20036;-45
2023/10/05 00:36:25;;;;;;;8.75;2.58;;;13.90;99.90;;;;;;5093098;28;20040;-45
2023/10/05 00:38:52;;;;;;;10.70;2.40;;;13.90;99.90;;;;;;5093220;28;20072;-46
2023/10/05 00:41:18;;;;;;;11.70;2.42;;;13.80;99.90;;;;;;5092948;28;20109;-46
2023/10/05 00:43:46;;;;;;;8.35;2.13;;;13.80;99.90;;;;;;5092776;28;20394;-46
2023/10/05 00:46:12;;;;;;;8.52;2.97;;;13.70;99.90;;;;;;5092833;28;20512;-45
2023/10/05 00:48:58;;;;;;;8.73;2.40;;;13.70;99.90;;;;;;5092546;28;20062;-45
2023/10/05 00:51:26;;;;;;;16.42;2.78;;;13.70;99.90;;;;;;5092624;28;20082;-44
2023/10/05 00:53:53;;;;;;;8.90;2.55;;;13.70;99.90;;;;;;5092563;28;20036;-45
2023/10/05 00:56:23;;;;;;;11.38;2.65;;;13.70;99.90;;;;;;5092667;28;20044;-47
2023/10/05 00:58:54;;;;;;;7.65;3.00;;;13.70;99.90;;;;;;5092411;28;20490;-46
2023/10/05 01:01:27;;;;;;;11.73;2.72;;;13.70;99.90;;;;;;5093049;28;20105;-45
2023/10/05 01:06:42;;;;;;;14.18;3.13;;;13.60;99.90;;;;;;5092943;28;20043;-47
2023/10/05 01:09:56;;;;;;;12.73;3.03;;;13.60;99.90;;;;;;5092265;28;20106;-48
2023/10/05 01:12:11;;;;;;;7.50;2.65;;;13.60;99.90;;;;;;5078218;28;20048;-47
2023/10/05 01:14:53;;;;;;;9.93;2.95;;;13.60;99.90;;;;;;5091637;28;20493;-45
2023/10/05 01:17:26;;;;;;;9.30;2.75;;;13.60;99.90;;;;;;5091998;28;20035;-44
2023/10/05 01:19:57;;;;;;;10.13;2.53;;;13.60;99.90;;;;;;5092052;28;20371;-45
2023/10/05 01:22:32;;;;;;;9.80;2.30;;;13.60;99.90;;;;;;5091992;28;20375;-45
2023/10/05 01:24:59;;;;;;;10.85;3.22;;;13.60;99.90;;;;;;5092154;28;20044;-46
2023/10/05 01:27:29;;;;;;;9.85;2.47;;;13.60;99.90;;;;;;5092513;28;20035;-47
2023/10/05 01:29:59;;;;;;;12.38;3.65;;;13.60;99.90;;;;;;5092008;28;20109;-47
2023/10/05 01:32:26;;;;;;;13.32;3.15;;;13.60;99.90;;;;;;5092189;28;20040;-46
2023/10/05 01:34:52;;;;;;;8.00;2.70;;;13.60;99.90;;;;;;5091642;28;20480;-46
2023/10/05 01:37:22;;;;;;;8.45;2.78;;;13.60;99.90;;;;;;5092031;28;20036;-46
2023/10/05 01:39:48;;;;;;;14.10;2.92;;;13.60;99.90;;;;;;5091819;28;20034;-46
2023/10/05 01:42:14;;;;;;;8.75;2.53;;;13.60;99.90;;;;;;5091783;28;20047;-45
2023/10/05 01:44:46;;;;;;;11.43;2.85;;;13.70;99.90;;;;;;5092116;28;20434;-46
2023/10/05 01:47:15;;;;;;;11.60;2.80;;;13.60;99.90;;;;;;5092000;28;20024;-46
2023/10/05 01:49:41;;;;;;;10.75;2.40;;;13.60;99.90;;;;;;5091833;28;20043;-46
2023/10/05 01:52:08;;;;;;;11.07;2.85;;;13.60;99.90;;;;;;5091650;28;20051;-45
2023/10/05 01:54:34;;;;;;;10.60;2.80;;;13.60;99.90;;;;;;5091958;28;20071;-46
2023/10/05 01:57:07;;;;;;;10.13;2.95;;;13.60;99.90;;;;;;5092021;28;20518;-47
2023/10/05 01:59:34;;;;;;;7.30;2.45;;;13.60;99.90;;;;;;5091935;28;20028;-45
2023/10/05 02:02:00;;;;;;;11.02;2.88;;;13.60;99.90;;;;;;5091445;28;20033;-45
2023/10/05 02:04:27;;;;;;;9.05;3.03;;;13.60;99.90;;;;;;5091689;28;20083;-45
2023/10/05 02:06:53;;;;;;;14.07;2.50;;;13.60;99.90;;;;;;5091945;28;20040;-46
2023/10/05 02:09:20;;;;;;;11.57;2.88;;;13.60;99.90;;;;;;5091465;28;20039;-46
2023/10/05 02:11:47;;;;;;;12.65;3.00;;;13.60;99.90;;;;;;5091650;28;20032;-47
2023/10/05 02:14:16;;;;;;;13.25;2.65;;;13.60;99.90;;;;;;5091330;28;20505;-46
2023/10/05 02:16:48;;;;;;;13.77;3.55;;;13.60;99.90;;;;;;5091685;28;20377;-47
2023/10/05 02:19:14;;;;;;;16.23;2.50;;;13.60;99.90;;;;;;5089871;28;20061;-47
2023/10/05 02:21:40;;;;;;;13.23;2.67;;;13.60;99.90;;;;;;5099353;28;20052;-44
2023/10/05 02:24:17;;;;;;;8.75;2.95;;;13.60;99.90;;;;;;5111613;28;20417;-46
2023/10/05 02:29:25;;;;;;;15.52;2.42;;;13.50;99.90;;;;;;5103212;28;20071;-47
2023/10/05 02:32:15;;;;;;;8.88;2.80;;;13.60;99.90;;;;;;5115848;28;20035;-45
2023/10/05 02:37:24;;;;;;;11.30;2.10;;;13.60;99.90;;;;;;5115610;28;20508;-45
2023/10/05 02:39:50;;;;;;;14.18;2.78;;;13.60;99.90;;;;;;5115744;28;20390;-45
2023/10/05 02:42:21;;;;;;;11.10;2.53;;;13.60;99.90;;;;;;5115455;28;20028;-44
2023/10/05 02:44:46;;;;;;;11.98;2.60;;;13.60;99.90;;;;;;5097616;28;20439;-45
2023/10/05 02:47:13;;;;;;;8.73;1.92;;;13.60;99.90;;;;;;5115629;28;20114;-46
2023/10/05 02:49:44;;;;;;;10.13;2.72;;;13.60;99.90;;;;;;5115453;28;20036;-46
2023/10/05 02:52:13;;;;;;;11.82;2.42;;;13.60;99.90;;;;;;5115468;28;20031;-46
2023/10/05 02:54:42;;;;;;;15.88;3.30;;;13.60;99.90;;;;;;5115211;28;20050;-46
2023/10/05 02:57:08;;;;;;;10.52;2.53;;;13.60;99.90;;;;;;5115295;28;20427;-45
2023/10/05 02:59:35;;;;;;;10.98;2.55;;;13.60;99.90;;;;;;5115041;28;20481;-46
2023/10/05 03:02:06;;;;;;;12.98;2.90;;;13.60;99.90;;;;;;5115356;28;20036;-47
2023/10/05 03:04:44;;;;;;;10.45;2.42;;;13.60;99.90;;;;;;5115277;28;20602;-47
2023/10/05 03:07:19;;;;;;;17.17;2.47;;;13.60;99.90;;;;;;5115206;28;20039;-47
2023/10/05 03:09:46;;;;;;;10.93;2.53;;;13.60;99.90;;;;;;5114906;28;20401;-45
2023/10/05 03:12:13;;;;;;;12.47;2.77;;;13.60;99.90;;;;;;5115265;28;20047;-45
2023/10/05 03:14:45;;;;;;;13.18;2.92;;;13.70;99.90;;;;;;5114999;28;20096;-46
2023/10/05 03:17:18;;;;;;;15.60;2.80;;;13.70;99.90;;;;;;5115105;28;20034;-45
2023/10/05 03:19:44;;;;;;;10.32;2.85;;;13.80;99.90;;;;;;5114848;28;20055;-45
2023/10/05 03:22:12;;;;;;;14.90;3.10;;;13.80;99.90;;;;;;5114696;28;20062;-44
2023/10/05 03:24:44;;;;;;;12.77;2.63;;;13.80;99.90;;;;;;5115062;28;20100;-46
2023/10/05 03:27:11;;;;;;;13.27;2.83;;;13.90;99.90;;;;;;5114838;28;20039;-47
2023/10/05 03:29:38;;;;;;;13.82;2.95;;;13.90;99.90;;;;;;5114823;28;20043;-45
2023/10/05 03:34:34;;;;;;;14.75;2.67;;;14.00;99.90;;;;;;5114608;28;20393;-45
2023/10/05 03:37:08;;;;;;;15.20;3.63;;;14.00;99.90;;;;;;5113570;28;20441;-46
2023/10/05 03:42:33;;;;;;;11.05;2.65;;;14.10;99.90;;;;;;5079961;28;20040;-46
2023/10/05 03:45:08;;;;;;;12.45;2.83;;;14.10;99.90;;;;;;5096147;28;20040;-46
2023/10/05 03:47:37;;;;;;;21.02;3.78;;;14.10;99.90;;;;;;5096135;28;20032;-47
2023/10/05 03:50:07;;;;;;;;;;;14.10;99.90;;;;;;5114944;28;20444;-46
2023/10/05 03:52:32;;;;;;;13.70;3.10;;;14.10;99.90;;;;;;5114341;28;19923;-46
2023/10/05 03:55:09;;;;;;;14.50;3.53;;;14.10;99.90;;;;;;5114215;28;20039;-46
2023/10/05 03:57:35;;;;;;;9.88;2.88;;;14.10;99.90;;;;;;5114051;28;20397;-45
2023/10/05 04:02:46;;;;;;;16.40;3.50;;;14.10;99.90;;;;;;5113754;28;20537;-45
2023/10/05 04:05:12;;;;;;;12.85;4.10;;;14.10;99.90;;;;;;5114012;28;20114;-47
2023/10/05 04:07:39;;;;;;;18.80;3.08;;;14.10;99.90;;;;;;5113805;28;20032;-49
2023/10/05 04:10:06;;;;;;;12.80;3.00;;;14.10;99.90;;;;;;5114439;28;20487;-45
2023/10/05 04:12:32;;;;;;;14.15;3.22;;;14.10;99.90;;;;;;5114065;28;20040;-45
2023/10/05 04:15:00;;;;;;;14.95;3.35;;;14.10;99.90;;;;;;5114080;28;20040;-48
2023/10/05 04:17:26;;;;;;;17.92;3.20;;;14.10;99.90;;;;;;5113713;28;20455;-49
2023/10/05 04:19:53;;;;;;;20.05;3.47;;;14.10;99.90;;;;;;5113717;28;20164;-48
2023/10/05 04:22:18;;;;;;;23.00;3.25;;;14.10;99.90;;;;;;5113303;28;20540;-45
2023/10/05 04:24:45;;;;;;;13.43;2.97;;;14.10;99.90;;;;;;5113420;28;20075;-45
2023/10/05 04:27:12;;;;;;;13.73;3.47;;;14.00;99.90;;;;;;5113693;28;20050;-45
2023/10/05 04:29:38;;;;;;;12.65;3.00;;;14.00;99.90;;;;;;5113742;28;20039;-46
2023/10/05 04:32:06;;;;;;;18.90;3.97;;;14.00;99.90;;;;;;5113575;28;20039;-45
2023/10/05 04:34:32;;;;;;;12.45;3.03;;;14.00;99.90;;;;;;5113495;28;20035;-48
2023/10/05 04:36:58;;;;;;;14.30;4.07;;;14.00;99.90;;;;;;5113341;28;20051;-47
2023/10/05 04:39:29;;;;;;;13.50;3.05;;;14.00;99.90;;;;;;5113541;28;20044;-48
2023/10/05 04:41:56;;;;;;;14.93;3.40;;;14.00;99.90;;;;;;5113212;28;20136;-46
2023/10/05 04:44:23;;;;;;;17.50;3.65;;;14.00;99.90;;;;;;5113240;28;20043;-47
2023/10/05 04:46:49;;;;;;;18.85;3.53;;;14.00;99.90;;;;;;5113451;28;20042;-45
2023/10/05 04:49:21;;;;;;;16.90;3.50;;;14.00;99.90;;;;;;5111980;28;20023;-47
2023/10/05 04:51:47;;;;;;;16.48;3.10;;;14.00;99.90;;;;;;5113168;28;20382;-46
2023/10/05 04:54:18;;;;;;;17.30;3.08;;;14.00;99.90;;;;;;5113147;28;20028;-46
2023/10/05 04:56:53;;;;;;;14.02;3.17;;;14.00;99.90;;;;;;5113064;28;20046;-47
2023/10/05 04:59:37;;;;;;;11.65;3.22;;;14.00;99.90;;;;;;5112959;28;20031;-45
2023/10/05 05:07:12;;;;;;;14.07;3.05;;;13.90;99.90;;;;;;5113195;28;20049;-45
2023/10/05 05:09:41;;;;;;;13.90;3.55;;;13.90;99.90;;;;;;5112702;28;20228;-46
2023/10/05 05:12:16;;;;;;;;;;;13.90;99.90;;;;;;5113179;28;20123;-46
2023/10/05 05:14:46;;;;;;;19.02;3.60;;;13.90;99.90;;;;;;5112708;28;19960;-49
2023/10/05 05:17:19;;;;;;;16.00;3.20;;;14.00;99.90;;;;;;5112796;28;20086;-47
2023/10/05 05:19:46;;;;;;;16.42;3.60;;;14.00;99.90;;;;;;5094484;28;20400;-46
2023/10/05 05:22:13;;;;;;;18.42;3.25;;;14.00;99.90;;;;;;5099662;28;20044;-46
2023/10/05 05:24:41;;;;;;;14.60;3.83;;;14.00;99.90;;;;;;5092122;28;20054;-48
2023/10/05 05:27:29;;;;;;;18.63;3.63;;;14.00;99.90;;;;;;5091977;28;20435;-47
2023/10/05 05:29:54;;;;;;;15.55;3.55;;;14.00;99.90;;;;;;5091936;28;20501;-46
2023/10/05 05:32:22;;;;;;;12.55;2.85;;;14.00;99.90;;;;;;5092087;28;20036;-46
2023/10/05 05:34:50;;;;;;;17.40;3.72;;;14.00;99.90;;;;;;5092441;28;20040;-47
2023/10/05 05:37:28;;;;;;;10.77;3.00;;;14.00;99.90;;;;;;5091825;28;20040;-47
2023/10/05 05:39:55;;;;;;;15.02;3.40;;;14.00;99.90;;;;;;5073802;28;20089;-46
2023/10/05 05:42:22;;;;;;;16.73;3.58;;;14.00;99.90;;;;;;5091821;28;20129;-45
2023/10/05 05:44:48;;;;;;;18.13;3.35;;;14.00;99.90;;;;;;5091966;28;20074;-48
2023/10/05 05:47:14;;;;;;;15.80;3.28;;;14.00;99.90;;;;;;5091610;28;20041;-44
2023/10/05 05:49:41;;;;;;;14.07;3.45;;;14.00;99.90;;;;;;5091676;28;20054;-44
2023/10/05 05:52:10;;;;;;;11.65;3.10;;;14.00;99.90;;;;;;5091425;28;20036;-46
2023/10/05 05:54:36;;;;;;;17.17;3.50;;;14.00;99.90;;;;;;5091800;28;20046;-45
2023/10/05 05:57:09;;;;;;;12.32;3.50;;;14.00;99.90;;;;;;5091922;28;20044;-45
2023/10/05 05:59:35;;;;;;;18.27;3.72;;;14.10;99.90;;;;;;5091496;28;20111;-46
2023/10/05 06:02:08;;;;;;;20.38;3.65;;;14.10;99.90;;;;;;5091544;28;20130;-48
2023/10/05 06:04:41;;;;;;;15.23;2.67;;;14.00;99.90;;;;;;5091485;28;20044;-46
2023/10/05 06:07:13;;;;;;;20.60;3.80;;;14.10;99.90;;;;;;5091918;28;20424;-47
2023/10/05 06:09:45;;;;;;;21.17;3.05;;;14.10;99.90;;;;;;5091557;28;20398;-46
2023/10/05 06:12:12;;;;;;;20.35;3.42;;;14.20;99.90;;;;;;5091459;28;20036;-46
2023/10/05 06:14:40;;;;;;;17.10;3.38;;;14.20;99.90;;;;;;5091393;28;20055;-46
2023/10/05 06:17:09;;;;;;;14.40;3.43;;;14.20;99.90;;;;;;5091354;28;20397;-47
2023/10/05 06:19:36;;;;;;;17.73;3.55;;;14.30;99.90;;;;;;5073476;28;20611;-49
2023/10/05 06:22:08;;;;;;;19.98;3.75;;;14.30;99.90;;;;;;5091087;28;20056;-46
2023/10/05 06:24:42;;;;;;;12.90;3.35;;;14.30;99.90;;;;;;5091469;28;20108;-45
2023/10/05 06:27:08;;;;;;;19.52;4.10;;;14.30;99.90;;;;;;5091251;28;20111;-46
2023/10/05 06:29:36;;;;;;;27.25;4.15;;;14.40;99.90;;;;;;5056529;28;20043;-49
2023/10/05 06:32:08;;;;;;;20.98;3.88;;;14.40;99.90;;;;;;5091136;28;20046;-48
2023/10/05 06:34:37;;;;;;;18.38;3.95;;;14.40;99.90;;;;;;5091510;28;20074;-46
2023/10/05 06:37:03;;;;;;;19.70;3.75;;;14.50;99.90;;;;;;5091289;28;20047;-45
2023/10/05 06:39:32;;;;;;;19.65;3.30;;;14.50;99.90;;;;;;5091286;28;20524;-45
2023/10/05 06:41:58;;;;;;;13.60;3.80;;;14.50;99.90;;;;;;5090918;28;20044;-45
2023/10/05 06:44:24;;;;;;;14.73;3.33;;;14.60;99.90;;;;;;5091162;28;20032;-46
2023/10/05 06:46:50;;;;;;;18.48;3.38;;;14.60;99.90;;;;;;5091400;28;20033;-46
2023/10/05 06:49:16;;;;;;;19.90;3.85;;;14.60;99.90;;;;;;5091010;28;20497;-45
2023/10/05 06:51:45;;;;;;;15.60;4.43;;;14.70;99.90;;;;;;5091551;28;20133;-45
2023/10/05 06:54:11;;;;;;;20.25;4.22;;;14.70;99.90;;;;;;5091032;28;20047;-45
2023/10/05 06:56:39;;;;;;;15.43;4.30;;;14.80;99.90;;;;;;5091149;28;20048;-45
2023/10/05 06:59:07;;;;;;;17.65;4.00;;;14.80;99.90;;;;;;5090929;28;20474;-45
2023/10/05 07:01:34;;;;;;;19.13;3.22;;;14.80;99.90;;;;;;5091147;28;20036;-45
2023/10/05 07:04:01;;;;;;;14.52;3.55;;;14.90;99.90;;;;;;5090987;28;20040;-47
2023/10/05 07:06:29;;;;;;;20.20;4.35;;;14.90;99.90;;;;;;5091352;28;20039;-48
2023/10/05 07:08:59;;;;;;;22.63;3.20;;;14.90;99.90;;;;;;5091545;28;20036;-50
2023/10/05 07:11:25;;;;;;;20.65;4.63;;;15.00;99.90;;;;;;5091078;28;20042;-45
2023/10/05 07:13:51;;;;;;;16.58;4.07;;;15.10;99.90;;;;;;5094888;28;20115;-45
2023/10/05 07:16:17;;;;;;;21.10;4.18;;;15.10;99.90;;;;;;5094680;28;20043;-45
2023/10/05 07:18:43;;;;;;;20.13;3.78;;;15.20;99.90;;;;;;5094657;28;20036;-47
2023/10/05 07:21:09;;;;;;;26.52;4.32;;;15.20;99.90;;;;;;5095847;28;20044;-48
2023/10/05 07:23:38;;;;;;;18.00;3.85;;;15.30;99.90;;;;;;5114757;28;20043;-45
2023/10/05 07:26:09;;;;;;;19.90;3.88;;;15.30;99.90;;;;;;5114702;28;20114;-45
2023/10/05 07:28:35;;;;;;;15.07;3.35;;;15.30;99.90;;;;;;5096359;28;20047;-47
2023/10/05 07:31:03;;;;;;;13.18;3.25;;;15.30;99.90;;;;;;5114693;28;20485;-46
2023/10/05 07:33:29;;;;;;;13.23;3.20;;;15.30;99.90;;;;;;5096435;28;20051;-45
2023/10/05 07:35:56;;;;;;;12.77;3.42;;;15.40;99.90;;;;;;5114706;28;20035;-46
2023/10/05 07:38:26;;;;;;;12.13;2.88;;;15.40;99.90;;;;;;5114537;28;20127;-46
2023/10/05 07:40:55;;;;;;;11.30;3.15;;;15.40;99.90;;;;;;5096342;28;20423;-47
2023/10/05 07:43:21;;;;;;;18.35;3.33;;;15.40;99.90;;;;;;5114565;28;20039;-46
2023/10/05 07:45:48;;;;;;;13.05;2.85;;;15.40;99.90;;;;;;5114334;28;20160;-46
2023/10/05 07:48:14;;;;;;;14.15;3.22;;;15.40;99.90;;;;;;5114469;28;20400;-48
2023/10/05 07:50:39;;;;;;;14.43;3.55;;;15.40;99.90;;;;;;5114014;28;20046;-48
2023/10/05 07:53:05;;;;;;;15.65;3.83;;;15.40;99.90;;;;;;5114313;28;20046;-48
2023/10/05 07:55:31;;;;;;;18.35;3.80;;;15.40;99.90;;;;;;5114158;28;20039;-47
2023/10/05 07:57:57;;;;;;;15.20;3.25;;;15.40;99.90;;;;;;5114610;28;20176;-46
2023/10/05 08:00:23;;;;;;;13.77;3.15;;;15.40;99.90;;;;;;5114083;28;20474;-49
2023/10/05 08:02:49;;;;;;;12.80;3.13;;;15.40;99.90;;;;;;5113914;28;20046;-48
2023/10/05 08:05:17;;;;;;;19.02;3.63;;;15.40;99.90;;;;;;5113975;28;20057;-49
2023/10/05 08:07:46;;;;;;;15.52;4.10;;;15.40;99.90;;;;;;5113949;28;20431;-47
2023/10/05 08:10:15;;;;;;;13.63;3.25;;;15.40;99.90;;;;;;5114177;28;20434;-46
2023/10/05 08:12:44;;;;;;;15.95;3.25;;;15.40;99.90;;;;;;5114022;28;20108;-50
2023/10/05 08:15:18;;;;;;;17.10;5.00;;;15.50;99.90;;;;;;5113905;28;20040;-47
2023/10/05 08:17:45;;;;;;;18.67;3.75;;;15.50;99.90;;;;;;5113761;28;20052;-49
2023/10/05 08:20:11;;;;;;;17.23;3.20;;;15.50;99.90;;;;;;5113629;28;20061;-49
2023/10/05 08:22:38;;;;;;;14.88;4.05;;;15.50;99.90;;;;;;5113329;28;20134;-45
2023/10/05 08:25:13;;;;;;;15.95;3.92;;;15.50;99.90;;;;;;5113570;28;20071;-50
2023/10/05 08:27:39;;;;;;;17.95;3.65;;;15.50;99.90;;;;;;5113579;28;20069;-50
2023/10/05 08:30:10;;;;;;;19.60;3.80;;;15.50;99.90;;;;;;5095328;28;20455;-48
2023/10/05 08:32:37;;;;;;;12.43;3.03;;;15.50;99.90;;;;;;5113488;28;20042;-50
2023/10/05 08:35:07;;;;;;;16.67;3.85;;;15.50;99.90;;;;;;5113239;28;20043;-48
2023/10/05 08:37:37;;;;;;;21.75;4.68;;;15.60;99.90;;;;;;5113431;28;20118;-48
2023/10/05 08:40:05;;;;;;;15.52;3.20;;;15.50;99.90;;;;;;5113543;28;20494;-50
2023/10/05 08:42:34;;;;;;;18.03;3.83;;;15.60;99.90;;;;;;5113066;28;20042;-49
2023/10/05 08:45:00;;;;;;;;;;;15.60;99.90;;;;;;5113635;28;20101;-50
2023/10/05 08:47:27;;;;;;;22.83;3.58;;;15.60;99.90;;;;;;5113037;28;19916;-50
2023/10/05 08:49:53;;;;;;;17.52;3.97;;;15.60;99.90;;;;;;5113275;28;20358;-51
2023/10/05 08:52:20;;;;;;;16.50;3.72;;;15.60;99.90;;;;;;5113161;28;20122;-50
2023/10/05 08:54:46;;;;;;;12.10;3.30;;;15.50;99.90;;;;;;5113145;28;20039;-46
2023/10/05 08:57:13;;;;;;;15.63;3.65;;;15.60;99.90;;;;;;5112980;28;20036;-50
2023/10/05 08:59:46;;;;;;;15.60;3.80;;;15.50;99.90;;;;;;5112940;28;20485;-46
2023/10/05 09:02:18;;;;;;;12.80;3.78;;;15.50;99.90;;;;;;5112953;28;20077;-46
2023/10/05 09:04:59;;;;;;;10.82;3.67;;;15.60;99.90;;;;;;5112803;28;20585;-48
2023/10/05 09:07:35;;;;;;;18.75;3.53;;;15.50;99.90;;;;;;5112908;28;20069;-46
2023/10/05 09:10:05;;;;;;;18.65;4.22;;;15.50;99.90;;;;;;5112836;28;20070;-46
2023/10/05 09:12:34;;;;;;;15.82;4.25;;;15.60;99.90;;;;;;5112560;28;20115;-46
2023/10/05 09:17:57;;;;;;;14.63;4.18;;;15.60;99.90;;;;;;5112497;28;20119;-46
2023/10/05 09:20:30;;;;;;;15.98;3.80;;;15.50;99.90;;;;;;5112426;28;20040;-49
2023/10/05 09:23:00;;;;;;;14.13;3.72;;;15.60;99.90;;;;;;5112306;28;20051;-48
2023/10/05 09:25:34;;;;;;;13.15;4.45;;;15.60;99.90;;;;;;5112324;28;20032;-49
2023/10/05 09:28:13;;;;;;;16.58;4.60;;;15.50;99.90;;;;;;5094139;28;20044;-49
2023/10/05 09:30:51;;;;;;;17.13;3.88;;;15.50;99.90;;;;;;5094055;28;20040;-47
2023/10/05 09:33:19;;;;;;;11.80;3.50;;;15.50;99.90;;;;;;5112301;28;20389;-51
2023/10/05 09:35:48;;;;;;;13.83;3.87;;;15.50;99.90;;;;;;5093716;28;20490;-52
2023/10/05 09:38:17;;;;;;;10.00;3.80;;;15.50;99.90;;;;;;5112468;28;20117;-50
2023/10/05 09:40:47;;;;;;;16.00;4.13;;;15.50;99.90;;;;;;5112102;28;20035;-49
2023/10/05 09:43:21;;;;;;;17.50;3.75;;;15.60;99.90;;;;;;5112516;28;20480;-49
2023/10/05 09:45:52;;;;;;;13.93;4.60;;;15.50;99.90;;;;;;5111978;28;20032;-50
2023/10/05 09:48:24;;;;;;;11.20;3.55;;;15.50;99.90;;;;;;5112208;28;20497;-50
2023/10/05 09:50:52;;;;;;;16.30;4.13;;;15.60;99.90;;;;;;5112013;28;20030;-49
2023/10/05 09:53:19;;;;;;;13.10;3.80;;;15.50;99.90;;;;;;5112186;28;20390;-48
2023/10/05 09:55:53;;;;;;;16.42;4.63;;;15.50;99.90;;;;;;5111861;28;20043;-47
2023/10/05 09:58:20;;;;;;;10.70;4.22;;;15.50;99.90;;;;;;5112298;28;20050;-45
2023/10/05 10:03:14;;;;;;;13.90;4.90;;;15.60;99.90;;;;;;5111761;28;20047;-45
2023/10/05 10:05:51;;;;;;;13.43;4.20;;;15.70;99.90;;;;;;5112005;28;20441;-46
2023/10/05 10:08:24;;;;;;;13.52;4.05;;;15.70;99.90;;;;;;5111792;28;20270;-46
2023/10/05 10:11:08;;;;;;;9.95;3.50;;;15.60;99.90;;;;;;5093897;28;20111;-48
2023/10/05 10:13:38;;;;;;;12.90;3.75;;;15.80;99.90;;;;;;5111990;28;20375;-49
2023/10/05 10:16:22;;;;;;;10.90;4.05;;;15.90;99.90;;;;;;5111960;28;20159;-50
2023/10/05 10:18:53;;;;;;;15.65;4.40;;;15.90;99.90;;;;;;5111769;28;20036;-48
2023/10/05 10:21:46;;;;;;;12.13;3.97;;;16.00;99.90;;;;;;5111655;28;20039;-51
2023/10/05 10:24:17;;;;;;;12.75;4.00;;;16.10;99.90;;;;;;5111926;28;20047;-48
2023/10/05 10:26:53;;;;;;;11.15;3.83;;;16.10;99.90;;;;;;5111633;28;20137;-50
2023/10/05 10:29:22;;;;;;;17.13;3.95;;;16.10;99.90;;;;;;5111625;28;20031;-51
2023/10/05 10:32:32;;;;;;;12.82;3.22;;;16.00;99.90;;;;;;5111721;28;20042;-50
2023/10/05 10:35:09;;;;;;;21.42;4.45;;;16.10;99.90;;;;;;5111641;28;20078;-51
2023/10/05 10:37:42;;;;;;;9.95;3.15;;;16.10;99.90;;;;;;5111643;28;20089;-48
2023/10/05 10:45:33;;;;;;;12.18;3.60;;;16.20;99.90;;;;;;5111699;28;20047;-50
2023/10/05 10:48:12;;;;;;;12.15;3.70;;;16.20;99.90;;;;;;5114570;28;20036;-48
2023/10/05 10:50:39;;;;;;;15.40;3.53;;;16.20;99.90;;;;;;5115491;28;20035;-46
2023/10/05 10:53:17;;;;;;;15.20;4.07;;;16.30;99.90;;;;;;5115623;28;20089;-47
2023/10/05 10:55:51;;;;;;;13.55;3.78;;;16.30;99.90;;;;;;5115311;28;20039;-46
2023/10/05 10:58:25;;;;;;;14.95;4.00;;;16.20;99.90;;;;;;5115390;28;20046;-45
2023/10/05 11:00:54;;;;;;;14.43;3.95;;;16.20;99.90;;;;;;5115163;28;20504;-46
2023/10/05 11:03:26;;;;;;;14.38;3.90;;;16.20;99.90;;;;;;5115263;28;20067;-47
2023/10/05 11:05:54;;;;;;;12.55;3.75;;;16.20;99.90;;;;;;5115385;28;20039;-49
2023/10/05 11:08:20;;;;;;;20.35;4.22;;;16.10;99.90;;;;;;5115261;28;20032;-50
2023/10/05 11:13:43;;;;;;;13.88;4.22;;;16.20;99.90;;;;;;5115304;28;20047;-46
2023/10/05 11:16:09;;;;;;;16.00;4.65;;;16.10;99.90;;;;;;5114808;28;20039;-46
2023/10/05 11:18:39;;;;;;;13.60;4.35;;;16.20;99.90;;;;;;5114989;28;20505;-51
2023/10/05 11:21:16;;;;;;;14.63;4.97;;;16.20;99.90;;;;;;5114699;28;20052;-47
2023/10/05 11:23:47;;;;;;;13.90;3.53;;;16.20;99.90;;;;;;5114731;28;20384;-50
2023/10/05 11:26:26;;;;;;;14.90;4.40;;;16.30;99.90;;;;;;5096625;28;20493;-49
2023/10/05 11:28:53;;;;;;;11.48;3.85;;;16.20;99.90;;;;;;5114811;28;20089;-48
2023/10/05 11:31:23;;;;;;;20.02;5.32;;;16.20;99.90;;;;;;5114776;28;20100;-51
2023/10/05 11:33:53;;;;;;;13.18;3.90;;;16.30;99.90;;;;;;5114603;28;20064;-49
2023/10/05 11:36:22;;;;;;;10.25;3.58;;;16.30;99.90;;;;;;5114591;28;20039;-51
2023/10/05 11:38:48;;;;;;;;;;;16.30;99.90;;;;;;5115109;28;20082;-47
2023/10/05 11:41:23;;;;;;;10.15;3.95;;;16.20;99.90;;;;;;5114709;28;19963;-50
2023/10/05 11:43:52;;;;;;;10.50;4.10;;;16.30;99.90;;;;;;5114348;28;20052;-49
2023/10/05 11:46:24;;;;;;;12.20;3.65;;;16.40;99.90;;;;;;5114278;28;20094;-47
2023/10/05 11:48:56;;;;;;;6.43;2.70;;;16.40;99.90;;;;;;5114565;28;20424;-47
2023/10/05 11:51:41;;;;;;;8.38;2.55;;;16.20;99.90;;;;;;5114374;28;20034;-47
2023/10/05 11:54:12;;;;;;;11.90;3.38;;;16.20;99.90;;;;;;5114481;28;20067;-46
2023/10/05 11:56:41;;;;;;;9.18;3.70;;;16.10;99.90;;;;;;5114124;28;20043;-47
2023/10/05 11:59:09;;;;;;;9.85;3.45;;;16.10;99.90;;;;;;5113494;28;20049;-46
2023/10/05 12:01:39;;;;;;;8.17;2.70;;;16.20;99.90;;;;;;5114359;28;20051;-47
2023/10/05 12:04:07;;;;;;;7.68;2.25;;;16.10;99.90;;;;;;5113976;28;20044;-47
2023/10/05 12:06:33;;;;;;;8.68;2.75;;;16.10;99.90;;;;;;5114338;28;20469;-45
2023/10/05 12:09:27;;;;;;;8.77;3.03;;;16.10;99.90;;;;;;5114135;28;20390;-44
2023/10/05 12:11:54;;;;;;;8.55;3.10;;;16.10;99.90;;;;;;5114143;28;20040;-46
2023/10/05 12:14:20;;;;;;;9.88;3.10;;;16.10;99.90;;;;;;5113703;28;20040;-46
2023/10/05 12:16:46;;;;;;;9.30;3.22;;;16.10;99.90;;;;;;5113773;28;20035;-46
2023/10/05 12:19:16;;;;;;;10.48;3.25;;;16.10;99.90;;;;;;5113983;28;20036;-49
2023/10/05 12:21:43;;;;;;;12.07;4.13;;;16.20;99.90;;;;;;5103877;28;20506;-47
2023/10/05 12:24:12;;;;;;;10.45;3.35;;;16.30;99.90;;;;;;5093261;28;20075;-49
2023/10/05 12:26:39;;;;;;;8.20;2.95;;;16.40;99.90;;;;;;5093352;28;20115;-52
2023/10/05 12:29:12;;;;;;;11.13;2.90;;;16.40;99.90;;;;;;5093195;28;20539;-46
2023/10/05 12:31:45;;;;;;;11.18;3.58;;;16.50;99.90;;;;;;5093258;28;20070;-46
2023/10/05 12:34:17;;;;;;;11.05;3.05;;;16.60;99.90;;;;;;5079909;28;20051;-47
2023/10/05 12:36:51;;;;;;;21.25;3.55;;;16.70;99.90;;;;;;5075120;28;20044;-47
2023/10/05 12:39:20;;;;;;;16.83;3.65;;;16.60;99.90;;;;;;5078689;28;20035;-47
2023/10/05 12:41:50;;;;;;;13.52;3.40;;;16.60;99.90;;;;;;5093088;28;20044;-50
2023/10/05 12:44:16;;;;;;;12.35;2.92;;;16.60;99.90;;;;;;5078606;28;20040;-45
2023/10/05 12:46:45;;;;;;;12.85;2.97;;;16.70;99.90;;;;;;5092839;28;20040;-45
2023/10/05 12:49:15;;;;;;;6.47;2.60;;;16.60;99.90;;;;;;5093011;28;20036;-44
2023/10/05 12:51:42;;;;;;;12.48;2.97;;;16.80;99.90;;;;;;5083882;28;20032;-46
2023/10/05 12:54:09;;;;;;;8.73;2.70;;;17.00;99.90;;;;;;5092698;28;20459;-47
2023/10/05 12:56:38;;;;;;;12.07;2.78;;;17.10;99.90;;;;;;5092603;28;20108;-45
2023/10/05 12:59:07;;;;;;;9.75;3.25;;;17.30;99.90;;;;;;5093080;28;20108;-47
2023/10/05 13:01:35;;;;;;;14.20;3.10;;;17.50;99.90;;;;;;5092553;28;20040;-45
2023/10/05 13:04:05;;;;;;;10.30;3.10;;;17.50;99.90;;;;;;5092449;28;20046;-46
2023/10/05 13:06:32;;;;;;;14.02;3.00;;;17.60;99.90;;;;;;5092665;28;20111;-47
2023/10/05 13:09:03;;;;;;;9.82;2.95;;;17.60;99.90;;;;;;5091882;28;20036;-46
2023/10/05 13:11:30;;;;;;;11.18;2.80;;;17.70;99.90;;;;;;5074128;28;20036;-46
2023/10/05 13:13:56;;;;;;;9.50;3.33;;;17.70;99.90;;;;;;5092300;28;20078;-50
2023/10/05 13:16:21;;;;;;;11.27;2.67;;;17.60;99.90;;;;;;5092635;28;20078;-48
2023/10/05 13:18:54;;;;;;;11.18;2.45;;;17.80;99.90;;;;;;5074358;28;20051;-47
2023/10/05 13:21:22;;;;;;;9.10;1.92;;;17.70;99.90;;;;;;5092074;28;20040;-46
2023/10/05 13:23:48;;;;;;;7.78;2.20;;;17.70;99.90;;;;;;5092121;28;20036;-46
2023/10/05 13:26:16;;;;;;;9.32;2.80;;;17.70;99.90;;;;;;5092192;28;20032;-45
2023/10/05 13:28:42;;;;;;;8.73;2.90;;;17.70;99.90;;;;;;5091924;28;20110;-46